sensor_id;sensor_type;location;lat;lon;timestamp;temperature;humidity
14192;DHT22;7177;48.572;7.838;2023-08-07T00:01:51;13.70;99.90
14192;DHT22;7177;48.572;7.838;2023-08-07T00:04:16;13.70;99.90
14192;DHT22;7177;48.572;7.838;2023-08-07T00:06:42;13.70;99.90
14192;DHT22;7177;48.572;7.838;2023-08-07T00:09:07;13.70;99.90
14192;DHT22;7177;48.572;7.838;2023-08-07T00:11:33;13.70;99.90
14192;DHT22;7177;48.572;7.838;2023-08-07T00:13:58;13.80;99.90
14192;DHT22;7177;48.572;7.838;2023-08-07T00:16:24;13.80;99.90
14192;DHT22;7177;48.572;7.838;2023-08-07T00:18:50;13.70;99.90
14192;DHT22;7177;48.572;7.838;2023-08-07T00:21:18;13.70;99.90
14192;DHT22;7177;48.572;7.838;2023-08-07T00:23:43;13.70;99.90
14192;DHT22;7177;48.572;7.838;2023-08-07T00:26:08;13.70;99.90
14192;DHT22;7177;48.572;7.838;2023-08-07T00:28:34;13.70;99.90
14192;DHT22;7177;48.572;7.838;2023-08-07T00:30:59;13.70;99.90
14192;DHT22;7177;48.572;7.838;2023-08-07T00:33:25;13.70;99.90
14192;DHT22;7177;48.572;7.838;2023-08-07T00:35:50;13.70;99.90
14192;DHT22;7177;48.572;7.838;2023-08-07T00:40:42;13.70;99.90
14192;DHT22;7177;48.572;7.838;2023-08-07T00:45:41;13.60;99.90
14192;DHT22;7177;48.572;7.838;2023-08-07T00:48:07;13.60;99.90
14192;DHT22;7177;48.572;7.838;2023-08-07T00:52:59;13.50;99.90
14192;DHT22;7177;48.572;7.838;2023-08-07T00:55:26;13.40;99.90
14192;DHT22;7177;48.572;7.838;2023-08-07T00:57:51;13.40;99.90
14192;DHT22;7177;48.572;7.838;2023-08-07T01:00:18;13.40;99.90
14192;DHT22;7177;48.572;7.838;2023-08-07T01:02:44;13.30;99.90
14192;DHT22;7177;48.572;7.838;2023-08-07T01:05:10;13.20;99.90
14192;DHT22;7177;48.572;7.838;2023-08-07T01:07:35;13.20;99.90
14192;DHT22;7177;48.572;7.838;2023-08-07T01:10:01;13.10;99.90
14192;DHT22;7177;48.572;7.838;2023-08-07T01:12:38;13.10;99.90
14192;DHT22;7177;48.572;7.838;2023-08-07T01:19:59;12.90;99.90
14192;DHT22;7177;48.572;7.838;2023-08-07T01:22:25;12.90;99.90
14192;DHT22;7177;48.572;7.838;2023-08-07T01:24:50;12.90;99.90
14192;DHT22;7177;48.572;7.838;2023-08-07T01:29:49;12.90;99.90
14192;DHT22;7177;48.572;7.838;2023-08-07T01:32:28;12.80;99.90
14192;DHT22;7177;48.572;7.838;2023-08-07T01:34:55;12.80;99.90
14192;DHT22;7177;48.572;7.838;2023-08-07T01:37:23;12.70;99.90
14192;DHT22;7177;48.572;7.838;2023-08-07T01:39:49;12.70;99.90
14192;DHT22;7177;48.572;7.838;2023-08-07T01:42:16;12.70;99.90
14192;DHT22;7177;48.572;7.838;2023-08-07T01:44:42;12.60;99.90
14192;DHT22;7177;48.572;7.838;2023-08-07T01:47:08;12.60;99.90
14192;DHT22;7177;48.572;7.838;2023-08-07T01:49:33;12.60;99.90
14192;DHT22;7177;48.572;7.838;2023-08-07T01:51:59;12.50;99.90
14192;DHT22;7177;48.572;7.838;2023-08-07T01:54:24;12.50;99.90
14192;DHT22;7177;48.572;7.838;2023-08-07T01:56:50;12.40;99.90
14192;DHT22;7177;48.572;7.838;2023-08-07T01:59:15;12.40;99.90
14192;DHT22;7177;48.572;7.838;2023-08-07T02:01:41;12.40;99.90
14192;DHT22;7177;48.572;7.838;2023-08-07T02:04:06;12.40;99.90
14192;DHT22;7177;48.572;7.838;2023-08-07T02:06:32;12.40;99.90
14192;DHT22;7177;48.572;7.838;2023-08-07T02:08:57;12.30;99.90
14192;DHT22;7177;48.572;7.838;2023-08-07T02:11:23;12.30;99.90
14192;DHT22;7177;48.572;7.838;2023-08-07T02:13:49;12.30;99.90
14192;DHT22;7177;48.572;7.838;2023-08-07T02:16:14;12.30;99.90
14192;DHT22;7177;48.572;7.838;2023-08-07T02:18:40;12.20;99.90
14192;DHT22;7177;48.572;7.838;2023-08-07T02:21:05;12.20;99.90
14192;DHT22;7177;48.572;7.838;2023-08-07T02:23:31;12.20;99.90
14192;DHT22;7177;48.572;7.838;2023-08-07T02:25:56;12.10;99.90
14192;DHT22;7177;48.572;7.838;2023-08-07T02:28:22;12.10;99.90
14192;DHT22;7177;48.572;7.838;2023-08-07T02:30:47;12.10;99.90
14192;DHT22;7177;48.572;7.838;2023-08-07T02:33:14;12.10;99.90
14192;DHT22;7177;48.572;7.838;2023-08-07T02:35:40;12.10;99.90
14192;DHT22;7177;48.572;7.838;2023-08-07T02:38:05;12.10;99.90
14192;DHT22;7177;48.572;7.838;2023-08-07T02:40:31;12.10;99.90
14192;DHT22;7177;48.572;7.838;2023-08-07T02:42:56;12.10;99.90
14192;DHT22;7177;48.572;7.838;2023-08-07T02:45:22;12.10;99.90
14192;DHT22;7177;48.572;7.838;2023-08-07T02:47:47;12.20;99.90
14192;DHT22;7177;48.572;7.838;2023-08-07T02:50:13;12.20;99.90
14192;DHT22;7177;48.572;7.838;2023-08-07T02:52:38;12.20;99.90
14192;DHT22;7177;48.572;7.838;2023-08-07T02:55:04;12.20;99.90
14192;DHT22;7177;48.572;7.838;2023-08-07T02:57:30;12.30;99.90
14192;DHT22;7177;48.572;7.838;2023-08-07T02:59:55;12.30;99.90
14192;DHT22;7177;48.572;7.838;2023-08-07T03:02:21;12.30;99.90
14192;DHT22;7177;48.572;7.838;2023-08-07T03:04:46;12.30;99.90
14192;DHT22;7177;48.572;7.838;2023-08-07T03:07:12;12.30;99.90
14192;DHT22;7177;48.572;7.838;2023-08-07T03:09:37;12.40;99.90
14192;DHT22;7177;48.572;7.838;2023-08-07T03:12:03;12.40;99.90
14192;DHT22;7177;48.572;7.838;2023-08-07T03:14:30;12.50;99.90
14192;DHT22;7177;48.572;7.838;2023-08-07T03:16:55;12.50;99.90
14192;DHT22;7177;48.572;7.838;2023-08-07T03:19:21;12.60;99.90
14192;DHT22;7177;48.572;7.838;2023-08-07T03:21:47;12.60;99.90
14192;DHT22;7177;48.572;7.838;2023-08-07T03:24:12;12.60;99.90
14192;DHT22;7177;48.572;7.838;2023-08-07T03:26:38;12.60;99.90
14192;DHT22;7177;48.572;7.838;2023-08-07T03:29:03;12.70;99.90
14192;DHT22;7177;48.572;7.838;2023-08-07T03:31:29;12.70;99.90
14192;DHT22;7177;48.572;7.838;2023-08-07T03:33:54;12.70;99.90
14192;DHT22;7177;48.572;7.838;2023-08-07T03:36:20;12.80;99.90
14192;DHT22;7177;48.572;7.838;2023-08-07T03:38:45;12.80;99.90
14192;DHT22;7177;48.572;7.838;2023-08-07T03:41:11;12.80;99.90
14192;DHT22;7177;48.572;7.838;2023-08-07T03:43:37;12.80;99.90
14192;DHT22;7177;48.572;7.838;2023-08-07T03:46:02;12.70;99.90
14192;DHT22;7177;48.572;7.838;2023-08-07T03:48:28;12.70;99.90
14192;DHT22;7177;48.572;7.838;2023-08-07T03:51:02;12.80;99.90
14192;DHT22;7177;48.572;7.838;2023-08-07T03:53:28;12.70;99.90
14192;DHT22;7177;48.572;7.838;2023-08-07T03:55:53;12.70;99.90
14192;DHT22;7177;48.572;7.838;2023-08-07T03:58:19;12.60;99.90
14192;DHT22;7177;48.572;7.838;2023-08-07T04:00:44;12.50;99.90
14192;DHT22;7177;48.572;7.838;2023-08-07T04:03:10;12.50;99.90
14192;DHT22;7177;48.572;7.838;2023-08-07T04:05:35;12.40;99.90
14192;DHT22;7177;48.572;7.838;2023-08-07T04:08:01;12.40;99.90
14192;DHT22;7177;48.572;7.838;2023-08-07T04:10:26;12.30;99.90
14192;DHT22;7177;48.572;7.838;2023-08-07T04:12:52;12.20;99.90
14192;DHT22;7177;48.572;7.838;2023-08-07T04:15:17;12.20;99.90
14192;DHT22;7177;48.572;7.838;2023-08-07T04:17:43;12.20;99.90
14192;DHT22;7177;48.572;7.838;2023-08-07T04:20:09;12.10;99.90
14192;DHT22;7177;48.572;7.838;2023-08-07T04:22:34;12.10;99.90
14192;DHT22;7177;48.572;7.838;2023-08-07T04:24:59;12.10;99.90
14192;DHT22;7177;48.572;7.838;2023-08-07T04:27:25;12.10;99.90
14192;DHT22;7177;48.572;7.838;2023-08-07T04:29:52;12.10;99.90
14192;DHT22;7177;48.572;7.838;2023-08-07T04:32:17;12.00;99.90
14192;DHT22;7177;48.572;7.838;2023-08-07T04:34:43;12.30;99.90
14192;DHT22;7177;48.572;7.838;2023-08-07T04:37:08;12.40;99.90
14192;DHT22;7177;48.572;7.838;2023-08-07T04:39:34;12.60;99.90
14192;DHT22;7177;48.572;7.838;2023-08-07T04:42:01;12.80;99.90
14192;DHT22;7177;48.572;7.838;2023-08-07T04:44:26;12.80;99.90
14192;DHT22;7177;48.572;7.838;2023-08-07T04:46:52;12.90;99.90
14192;DHT22;7177;48.572;7.838;2023-08-07T04:49:17;13.00;99.90
14192;DHT22;7177;48.572;7.838;2023-08-07T04:51:43;13.10;99.90
14192;DHT22;7177;48.572;7.838;2023-08-07T04:54:08;13.20;99.90
14192;DHT22;7177;48.572;7.838;2023-08-07T04:56:34;13.30;99.90
14192;DHT22;7177;48.572;7.838;2023-08-07T04:59:00;13.30;99.90
14192;DHT22;7177;48.572;7.838;2023-08-07T05:01:27;13.40;99.90
14192;DHT22;7177;48.572;7.838;2023-08-07T05:03:52;13.40;99.90
14192;DHT22;7177;48.572;7.838;2023-08-07T05:06:18;13.40;99.90
14192;DHT22;7177;48.572;7.838;2023-08-07T05:08:44;13.40;99.90
14192;DHT22;7177;48.572;7.838;2023-08-07T05:11:10;13.40;99.90
14192;DHT22;7177;48.572;7.838;2023-08-07T05:13:35;13.40;99.90
14192;DHT22;7177;48.572;7.838;2023-08-07T05:16:01;13.40;99.90
14192;DHT22;7177;48.572;7.838;2023-08-07T05:18:26;13.40;99.90
14192;DHT22;7177;48.572;7.838;2023-08-07T05:20:52;13.50;99.90
14192;DHT22;7177;48.572;7.838;2023-08-07T05:23:17;13.50;99.90
14192;DHT22;7177;48.572;7.838;2023-08-07T05:25:45;13.60;99.90
14192;DHT22;7177;48.572;7.838;2023-08-07T05:28:11;13.60;99.90
14192;DHT22;7177;48.572;7.838;2023-08-07T05:30:37;13.60;99.90
14192;DHT22;7177;48.572;7.838;2023-08-07T05:33:02;13.50;99.90
14192;DHT22;7177;48.572;7.838;2023-08-07T05:35:28;13.50;99.90
14192;DHT22;7177;48.572;7.838;2023-08-07T05:37:53;13.60;99.90
14192;DHT22;7177;48.572;7.838;2023-08-07T05:40:19;13.70;99.90
14192;DHT22;7177;48.572;7.838;2023-08-07T05:42:45;14.00;99.90
14192;DHT22;7177;48.572;7.838;2023-08-07T05:45:10;14.30;99.90
14192;DHT22;7177;48.572;7.838;2023-08-07T05:47:36;14.60;99.90
14192;DHT22;7177;48.572;7.838;2023-08-07T05:50:01;14.90;99.90
14192;DHT22;7177;48.572;7.838;2023-08-07T05:52:27;14.90;99.90
14192;DHT22;7177;48.572;7.838;2023-08-07T05:54:53;14.80;99.90
14192;DHT22;7177;48.572;7.838;2023-08-07T05:57:18;14.70;99.90
14192;DHT22;7177;48.572;7.838;2023-08-07T05:59:44;14.60;99.90
14192;DHT22;7177;48.572;7.838;2023-08-07T06:02:10;14.60;99.90
14192;DHT22;7177;48.572;7.838;2023-08-07T06:04:38;14.60;99.90
14192;DHT22;7177;48.572;7.838;2023-08-07T06:07:05;14.70;99.90
14192;DHT22;7177;48.572;7.838;2023-08-07T06:09:31;14.70;99.90
14192;DHT22;7177;48.572;7.838;2023-08-07T06:11:56;14.80;99.90
14192;DHT22;7177;48.572;7.838;2023-08-07T06:14:22;14.90;99.90
14192;DHT22;7177;48.572;7.838;2023-08-07T06:16:50;14.80;99.90
14192;DHT22;7177;48.572;7.838;2023-08-07T06:19:16;14.80;99.90
14192;DHT22;7177;48.572;7.838;2023-08-07T06:21:42;14.80;99.90
14192;DHT22;7177;48.572;7.838;2023-08-07T06:24:07;14.80;99.90
14192;DHT22;7177;48.572;7.838;2023-08-07T06:26:33;14.80;99.90
14192;DHT22;7177;48.572;7.838;2023-08-07T06:28:58;14.90;99.90
14192;DHT22;7177;48.572;7.838;2023-08-07T06:31:24;15.20;99.90
14192;DHT22;7177;48.572;7.838;2023-08-07T06:33:49;15.30;99.90
14192;DHT22;7177;48.572;7.838;2023-08-07T06:36:15;15.30;99.90
14192;DHT22;7177;48.572;7.838;2023-08-07T06:38:40;15.30;99.90
14192;DHT22;7177;48.572;7.838;2023-08-07T06:41:06;15.50;99.90
14192;DHT22;7177;48.572;7.838;2023-08-07T06:43:31;15.80;99.90
14192;DHT22;7177;48.572;7.838;2023-08-07T06:45:58;16.00;99.90
14192;DHT22;7177;48.572;7.838;2023-08-07T06:48:24;16.10;99.90
14192;DHT22;7177;48.572;7.838;2023-08-07T06:50:50;16.30;99.90
14192;DHT22;7177;48.572;7.838;2023-08-07T06:53:15;16.30;99.90
14192;DHT22;7177;48.572;7.838;2023-08-07T06:55:41;16.40;99.90
14192;DHT22;7177;48.572;7.838;2023-08-07T06:58:07;16.40;99.90
14192;DHT22;7177;48.572;7.838;2023-08-07T07:00:33;16.20;99.90
14192;DHT22;7177;48.572;7.838;2023-08-07T07:03:00;16.30;99.90
14192;DHT22;7177;48.572;7.838;2023-08-07T07:05:26;16.40;99.90
14192;DHT22;7177;48.572;7.838;2023-08-07T07:07:51;16.40;99.90
14192;DHT22;7177;48.572;7.838;2023-08-07T07:10:17;16.40;99.90
14192;DHT22;7177;48.572;7.838;2023-08-07T07:12:42;16.40;99.90
14192;DHT22;7177;48.572;7.838;2023-08-07T07:15:08;16.30;99.90
14192;DHT22;7177;48.572;7.838;2023-08-07T07:17:34;16.10;99.90
14192;DHT22;7177;48.572;7.838;2023-08-07T07:20:00;16.10;99.90
14192;DHT22;7177;48.572;7.838;2023-08-07T07:22:25;16.10;99.90
14192;DHT22;7177;48.572;7.838;2023-08-07T07:24:51;15.90;99.90
14192;DHT22;7177;48.572;7.838;2023-08-07T07:27:16;15.90;99.90
14192;DHT22;7177;48.572;7.838;2023-08-07T07:29:42;16.30;99.90
14192;DHT22;7177;48.572;7.838;2023-08-07T07:32:07;16.50;99.90
14192;DHT22;7177;48.572;7.838;2023-08-07T07:34:33;16.70;99.90
14192;DHT22;7177;48.572;7.838;2023-08-07T07:36:58;16.90;99.90
14192;DHT22;7177;48.572;7.838;2023-08-07T07:39:24;17.10;99.90
14192;DHT22;7177;48.572;7.838;2023-08-07T07:41:50;17.60;99.90
14192;DHT22;7177;48.572;7.838;2023-08-07T07:44:15;17.60;99.90
14192;DHT22;7177;48.572;7.838;2023-08-07T07:46:41;17.60;99.90
14192;DHT22;7177;48.572;7.838;2023-08-07T07:49:06;17.60;99.90
14192;DHT22;7177;48.572;7.838;2023-08-07T07:51:32;17.80;99.90
14192;DHT22;7177;48.572;7.838;2023-08-07T07:53:58;17.80;99.90
14192;DHT22;7177;48.572;7.838;2023-08-07T07:56:23;17.90;99.90
14192;DHT22;7177;48.572;7.838;2023-08-07T07:58:49;17.60;99.90
14192;DHT22;7177;48.572;7.838;2023-08-07T08:01:15;17.70;99.90
14192;DHT22;7177;48.572;7.838;2023-08-07T08:03:40;17.80;99.90
14192;DHT22;7177;48.572;7.838;2023-08-07T08:06:06;17.70;99.90
14192;DHT22;7177;48.572;7.838;2023-08-07T08:08:31;17.80;99.90
14192;DHT22;7177;48.572;7.838;2023-08-07T08:10:57;17.70;99.90
14192;DHT22;7177;48.572;7.838;2023-08-07T08:13:22;17.80;99.90
14192;DHT22;7177;48.572;7.838;2023-08-07T08:15:49;17.90;99.90
14192;DHT22;7177;48.572;7.838;2023-08-07T08:18:14;18.20;99.90
14192;DHT22;7177;48.572;7.838;2023-08-07T08:20:40;18.50;99.90
14192;DHT22;7177;48.572;7.838;2023-08-07T08:23:06;18.50;99.90
14192;DHT22;7177;48.572;7.838;2023-08-07T08:25:31;18.50;99.90
14192;DHT22;7177;48.572;7.838;2023-08-07T08:27:58;18.60;99.90
14192;DHT22;7177;48.572;7.838;2023-08-07T08:30:24;18.60;99.90
14192;DHT22;7177;48.572;7.838;2023-08-07T08:32:50;18.50;99.90
14192;DHT22;7177;48.572;7.838;2023-08-07T08:35:15;18.20;99.90
14192;DHT22;7177;48.572;7.838;2023-08-07T08:37:41;18.00;99.90
14192;DHT22;7177;48.572;7.838;2023-08-07T08:40:10;17.90;99.90
14192;DHT22;7177;48.572;7.838;2023-08-07T08:42:39;18.00;99.90
14192;DHT22;7177;48.572;7.838;2023-08-07T08:45:07;18.10;99.90
14192;DHT22;7177;48.572;7.838;2023-08-07T08:47:35;18.10;99.90
14192;DHT22;7177;48.572;7.838;2023-08-07T08:50:08;18.10;99.90
14192;DHT22;7177;48.572;7.838;2023-08-07T08:52:41;18.10;99.90
14192;DHT22;7177;48.572;7.838;2023-08-07T08:55:08;18.10;99.90
14192;DHT22;7177;48.572;7.838;2023-08-07T08:57:34;18.20;99.90
14192;DHT22;7177;48.572;7.838;2023-08-07T09:00:01;18.30;99.90
14192;DHT22;7177;48.572;7.838;2023-08-07T09:02:36;18.50;99.90
14192;DHT22;7177;48.572;7.838;2023-08-07T09:05:02;18.30;99.90
14192;DHT22;7177;48.572;7.838;2023-08-07T09:07:28;18.40;99.90
14192;DHT22;7177;48.572;7.838;2023-08-07T09:09:53;18.50;99.90
14192;DHT22;7177;48.572;7.838;2023-08-07T09:12:26;18.50;99.90
14192;DHT22;7177;48.572;7.838;2023-08-07T09:14:56;18.30;99.90
14192;DHT22;7177;48.572;7.838;2023-08-07T09:17:28;18.30;99.90
14192;DHT22;7177;48.572;7.838;2023-08-07T09:19:54;18.80;99.90
14192;DHT22;7177;48.572;7.838;2023-08-07T09:22:20;19.40;99.90
14192;DHT22;7177;48.572;7.838;2023-08-07T09:24:46;19.50;99.90
14192;DHT22;7177;48.572;7.838;2023-08-07T09:27:12;19.30;99.90
14192;DHT22;7177;48.572;7.838;2023-08-07T09:29:39;19.10;99.90
14192;DHT22;7177;48.572;7.838;2023-08-07T09:32:14;19.10;99.90
14192;DHT22;7177;48.572;7.838;2023-08-07T09:34:41;19.00;99.90
14192;DHT22;7177;48.572;7.838;2023-08-07T09:37:08;19.10;99.90
14192;DHT22;7177;48.572;7.838;2023-08-07T09:39:34;18.90;99.90
14192;DHT22;7177;48.572;7.838;2023-08-07T09:42:01;18.90;99.90
14192;DHT22;7177;48.572;7.838;2023-08-07T09:44:35;19.10;99.90
14192;DHT22;7177;48.572;7.838;2023-08-07T09:47:19;19.40;99.90
14192;DHT22;7177;48.572;7.838;2023-08-07T09:49:45;19.40;99.90
14192;DHT22;7177;48.572;7.838;2023-08-07T09:52:13;19.30;99.90
14192;DHT22;7177;48.572;7.838;2023-08-07T09:54:39;19.10;99.90
14192;DHT22;7177;48.572;7.838;2023-08-07T09:57:05;19.00;99.90
14192;DHT22;7177;48.572;7.838;2023-08-07T09:59:34;18.90;99.90
14192;DHT22;7177;48.572;7.838;2023-08-07T10:02:01;19.10;99.90
14192;DHT22;7177;48.572;7.838;2023-08-07T10:04:30;19.00;99.90
14192;DHT22;7177;48.572;7.838;2023-08-07T10:06:57;18.90;99.90
14192;DHT22;7177;48.572;7.838;2023-08-07T10:09:23;18.70;99.90
14192;DHT22;7177;48.572;7.838;2023-08-07T10:11:51;18.70;99.90
14192;DHT22;7177;48.572;7.838;2023-08-07T10:14:18;18.70;99.90
14192;DHT22;7177;48.572;7.838;2023-08-07T10:16:45;19.50;99.90
14192;DHT22;7177;48.572;7.838;2023-08-07T10:19:11;19.50;99.90
14192;DHT22;7177;48.572;7.838;2023-08-07T10:21:39;19.40;99.90
14192;DHT22;7177;48.572;7.838;2023-08-07T10:24:06;19.20;99.90
14192;DHT22;7177;48.572;7.838;2023-08-07T10:26:36;19.30;99.90
14192;DHT22;7177;48.572;7.838;2023-08-07T10:29:04;19.70;99.90
14192;DHT22;7177;48.572;7.838;2023-08-07T10:31:32;19.70;99.90
14192;DHT22;7177;48.572;7.838;2023-08-07T10:33:59;20.80;99.90
14192;DHT22;7177;48.572;7.838;2023-08-07T10:36:32;22.30;99.90
14192;DHT22;7177;48.572;7.838;2023-08-07T10:39:11;23.20;99.90
14192;DHT22;7177;48.572;7.838;2023-08-07T10:41:42;23.50;99.90
14192;DHT22;7177;48.572;7.838;2023-08-07T10:44:27;23.10;99.90
14192;DHT22;7177;48.572;7.838;2023-08-07T10:46:56;23.00;99.90
14192;DHT22;7177;48.572;7.838;2023-08-07T10:49:38;21.50;99.90
14192;DHT22;7177;48.572;7.838;2023-08-07T10:52:09;20.70;99.90
14192;DHT22;7177;48.572;7.838;2023-08-07T10:54:39;20.70;99.90
14192;DHT22;7177;48.572;7.838;2023-08-07T10:57:12;19.90;99.90
14192;DHT22;7177;48.572;7.838;2023-08-07T11:00:01;19.60;99.90
14192;DHT22;7177;48.572;7.838;2023-08-07T11:02:30;20.00;99.90
14192;DHT22;7177;48.572;7.838;2023-08-07T11:04:57;21.30;99.90
14192;DHT22;7177;48.572;7.838;2023-08-07T11:07:26;22.20;99.90
14192;DHT22;7177;48.572;7.838;2023-08-07T11:09:56;22.70;99.90
14192;DHT22;7177;48.572;7.838;2023-08-07T11:12:27;22.60;99.90
14192;DHT22;7177;48.572;7.838;2023-08-07T11:14:53;22.40;99.60
14192;DHT22;7177;48.572;7.838;2023-08-07T11:17:27;23.00;99.90
14192;DHT22;7177;48.572;7.838;2023-08-07T11:19:55;23.70;97.90
14192;DHT22;7177;48.572;7.838;2023-08-07T11:22:20;23.70;98.00
14192;DHT22;7177;48.572;7.838;2023-08-07T11:24:46;23.30;95.90
14192;DHT22;7177;48.572;7.838;2023-08-07T11:27:12;23.60;94.20
14192;DHT22;7177;48.572;7.838;2023-08-07T11:29:38;23.10;95.00
14192;DHT22;7177;48.572;7.838;2023-08-07T11:32:04;23.00;95.50
14192;DHT22;7177;48.572;7.838;2023-08-07T11:34:30;22.40;97.30
14192;DHT22;7177;48.572;7.838;2023-08-07T11:36:56;20.90;99.90
14192;DHT22;7177;48.572;7.838;2023-08-07T11:39:23;20.40;99.90
14192;DHT22;7177;48.572;7.838;2023-08-07T11:41:50;20.00;99.90
14192;DHT22;7177;48.572;7.838;2023-08-07T11:44:18;20.00;99.90
14192;DHT22;7177;48.572;7.838;2023-08-07T11:46:43;19.60;99.90
14192;DHT22;7177;48.572;7.838;2023-08-07T11:49:09;19.60;99.90
14192;DHT22;7177;48.572;7.838;2023-08-07T11:51:35;20.00;99.90
14192;DHT22;7177;48.572;7.838;2023-08-07T11:54:01;20.70;99.90
14192;DHT22;7177;48.572;7.838;2023-08-07T11:56:28;20.80;99.90
14192;DHT22;7177;48.572;7.838;2023-08-07T11:58:54;21.50;99.90
14192;DHT22;7177;48.572;7.838;2023-08-07T12:01:24;22.60;99.90
14192;DHT22;7177;48.572;7.838;2023-08-07T12:03:58;22.60;99.90
14192;DHT22;7177;48.572;7.838;2023-08-07T12:06:36;23.30;99.90
14192;DHT22;7177;48.572;7.838;2023-08-07T12:09:05;23.90;99.40
14192;DHT22;7177;48.572;7.838;2023-08-07T12:11:37;23.00;98.80
14192;DHT22;7177;48.572;7.838;2023-08-07T12:14:03;23.00;99.50
14192;DHT22;7177;48.572;7.838;2023-08-07T12:16:35;22.40;99.90
14192;DHT22;7177;48.572;7.838;2023-08-07T12:19:01;21.20;99.90
14192;DHT22;7177;48.572;7.838;2023-08-07T12:21:27;21.20;99.90
14192;DHT22;7177;48.572;7.838;2023-08-07T12:23:56;21.20;99.90
14192;DHT22;7177;48.572;7.838;2023-08-07T12:26:22;22.00;99.90
14192;DHT22;7177;48.572;7.838;2023-08-07T12:28:48;22.10;99.90
14192;DHT22;7177;48.572;7.838;2023-08-07T12:31:13;23.30;99.90
14192;DHT22;7177;48.572;7.838;2023-08-07T12:33:39;24.80;96.40
14192;DHT22;7177;48.572;7.838;2023-08-07T12:36:04;24.00;96.80
14192;DHT22;7177;48.572;7.838;2023-08-07T12:38:30;24.00;96.90
14192;DHT22;7177;48.572;7.838;2023-08-07T12:40:56;23.80;97.50
14192;DHT22;7177;48.572;7.838;2023-08-07T12:43:22;24.40;97.30
14192;DHT22;7177;48.572;7.838;2023-08-07T12:45:48;25.00;95.10
14192;DHT22;7177;48.572;7.838;2023-08-07T12:48:13;25.00;95.60
14192;DHT22;7177;48.572;7.838;2023-08-07T12:50:39;25.30;95.30
14192;DHT22;7177;48.572;7.838;2023-08-07T12:53:06;25.10;94.10
14192;DHT22;7177;48.572;7.838;2023-08-07T12:55:32;25.00;94.40
14192;DHT22;7177;48.572;7.838;2023-08-07T12:57:58;23.80;95.80
14192;DHT22;7177;48.572;7.838;2023-08-07T13:00:23;23.80;97.00
14192;DHT22;7177;48.572;7.838;2023-08-07T13:02:50;23.50;97.20
14192;DHT22;7177;48.572;7.838;2023-08-07T13:05:17;23.10;97.90
14192;DHT22;7177;48.572;7.838;2023-08-07T13:07:44;22.20;96.20
14192;DHT22;7177;48.572;7.838;2023-08-07T13:10:12;22.30;96.60
14192;DHT22;7177;48.572;7.838;2023-08-07T13:12:39;22.30;96.80
14192;DHT22;7177;48.572;7.838;2023-08-07T13:15:07;22.00;96.20
14192;DHT22;7177;48.572;7.838;2023-08-07T13:17:37;22.00;96.60
14192;DHT22;7177;48.572;7.838;2023-08-07T13:20:04;22.40;97.50
14192;DHT22;7177;48.572;7.838;2023-08-07T13:22:34;24.20;96.60
14192;DHT22;7177;48.572;7.838;2023-08-07T13:25:00;25.00;95.30
14192;DHT22;7177;48.572;7.838;2023-08-07T13:27:26;25.00;95.40
14192;DHT22;7177;48.572;7.838;2023-08-07T13:29:51;25.50;96.00
14192;DHT22;7177;48.572;7.838;2023-08-07T13:32:16;25.80;94.10
14192;DHT22;7177;48.572;7.838;2023-08-07T13:34:44;26.10;92.20
14192;DHT22;7177;48.572;7.838;2023-08-07T13:37:10;26.00;93.70
14192;DHT22;7177;48.572;7.838;2023-08-07T13:39:36;25.80;91.10
14192;DHT22;7177;48.572;7.838;2023-08-07T13:42:02;25.50;91.00
14192;DHT22;7177;48.572;7.838;2023-08-07T13:44:28;25.30;90.80
14192;DHT22;7177;48.572;7.838;2023-08-07T13:46:54;25.00;91.10
14192;DHT22;7177;48.572;7.838;2023-08-07T13:49:21;24.80;91.60
14192;DHT22;7177;48.572;7.838;2023-08-07T13:51:47;24.80;91.50
14192;DHT22;7177;48.572;7.838;2023-08-07T13:54:13;25.10;90.70
14192;DHT22;7177;48.572;7.838;2023-08-07T13:56:38;24.80;91.40
14192;DHT22;7177;48.572;7.838;2023-08-07T13:59:04;24.60;91.80
14192;DHT22;7177;48.572;7.838;2023-08-07T14:01:29;24.70;92.20
14192;DHT22;7177;48.572;7.838;2023-08-07T14:03:55;24.60;91.60
14192;DHT22;7177;48.572;7.838;2023-08-07T14:06:20;24.50;91.90
14192;DHT22;7177;48.572;7.838;2023-08-07T14:08:46;24.50;92.20
14192;DHT22;7177;48.572;7.838;2023-08-07T14:11:12;23.80;91.50
14192;DHT22;7177;48.572;7.838;2023-08-07T14:13:40;23.70;91.80
14192;DHT22;7177;48.572;7.838;2023-08-07T14:16:05;23.20;92.80
14192;DHT22;7177;48.572;7.838;2023-08-07T14:18:31;23.20;93.20
14192;DHT22;7177;48.572;7.838;2023-08-07T14:20:56;23.60;93.60
14192;DHT22;7177;48.572;7.838;2023-08-07T14:23:22;24.90;91.30
14192;DHT22;7177;48.572;7.838;2023-08-07T14:25:47;24.90;91.50
14192;DHT22;7177;48.572;7.838;2023-08-07T14:28:16;25.20;91.00
14192;DHT22;7177;48.572;7.838;2023-08-07T14:30:42;25.20;91.40
14192;DHT22;7177;48.572;7.838;2023-08-07T14:33:07;25.20;88.00
14192;DHT22;7177;48.572;7.838;2023-08-07T14:35:33;25.10;89.60
14192;DHT22;7177;48.572;7.838;2023-08-07T14:37:58;24.60;88.60
14192;DHT22;7177;48.572;7.838;2023-08-07T14:40:24;23.70;90.40
14192;DHT22;7177;48.572;7.838;2023-08-07T14:42:49;22.70;91.60
14192;DHT22;7177;48.572;7.838;2023-08-07T14:45:15;22.40;92.90
14192;DHT22;7177;48.572;7.838;2023-08-07T14:47:43;22.30;93.30
14192;DHT22;7177;48.572;7.838;2023-08-07T14:50:09;22.10;95.10
14192;DHT22;7177;48.572;7.838;2023-08-07T14:52:35;22.00;96.60
14192;DHT22;7177;48.572;7.838;2023-08-07T14:55:01;22.10;96.90
14192;DHT22;7177;48.572;7.838;2023-08-07T14:57:26;22.90;96.70
14192;DHT22;7177;48.572;7.838;2023-08-07T14:59:52;22.90;96.90
14192;DHT22;7177;48.572;7.838;2023-08-07T15:02:18;24.00;95.50
14192;DHT22;7177;48.572;7.838;2023-08-07T15:04:43;24.00;95.50
14192;DHT22;7177;48.572;7.838;2023-08-07T15:07:09;24.50;94.70
14192;DHT22;7177;48.572;7.838;2023-08-07T15:09:34;24.80;93.60
14192;DHT22;7177;48.572;7.838;2023-08-07T15:12:00;25.30;92.80
14192;DHT22;7177;48.572;7.838;2023-08-07T15:14:25;25.60;92.20
14192;DHT22;7177;48.572;7.838;2023-08-07T15:16:51;25.90;92.10
14192;DHT22;7177;48.572;7.838;2023-08-07T15:19:16;26.20;91.00
14192;DHT22;7177;48.572;7.838;2023-08-07T15:21:42;25.50;88.30
14192;DHT22;7177;48.572;7.838;2023-08-07T15:24:07;24.60;90.60
14192;DHT22;7177;48.572;7.838;2023-08-07T15:26:33;24.00;91.70
14192;DHT22;7177;48.572;7.838;2023-08-07T15:28:58;23.90;91.40
14192;DHT22;7177;48.572;7.838;2023-08-07T15:31:24;23.90;92.00
14192;DHT22;7177;48.572;7.838;2023-08-07T15:33:50;24.00;91.60
14192;DHT22;7177;48.572;7.838;2023-08-07T15:36:18;24.20;91.20
14192;DHT22;7177;48.572;7.838;2023-08-07T15:38:43;24.50;91.40
14192;DHT22;7177;48.572;7.838;2023-08-07T15:41:10;25.00;90.70
14192;DHT22;7177;48.572;7.838;2023-08-07T15:43:36;25.00;90.10
14192;DHT22;7177;48.572;7.838;2023-08-07T15:46:01;25.30;90.00
14192;DHT22;7177;48.572;7.838;2023-08-07T15:48:27;25.50;90.10
14192;DHT22;7177;48.572;7.838;2023-08-07T15:50:52;25.50;88.20
14192;DHT22;7177;48.572;7.838;2023-08-07T15:53:18;25.20;90.10
14192;DHT22;7177;48.572;7.838;2023-08-07T15:55:44;25.40;91.00